Time;durP1;ratioP1;P1;durP2;ratioP2;P2;SDS_P1;SDS_P2;PMS_P1;PMS_P2;Temp;Humidity;BMP_temperature;BMP_pressure;BME280_temperature;BME280_humidity;BME280_pressure;Samples;Min_cycle;Max_cycle;Signal;HPM_P1;HPM_P2
2022/04/20 03:56:24;;;;;;;13.80;10.95;;;;;;;6.03;68.02;100315.19;5606001;31;76722;-58
2022/04/20 03:59:27;;;;;;;15.75;11.80;;;;;;;6.03;68.02;100315.19;5583572;31;33258;-57
2022/04/20 04:02:30;;;;;;;12.37;10.95;;;;;;;5.60;69.14;100314.97;5583442;31;33599;-58
2022/04/20 04:05:33;;;;;;;19.45;11.98;;;;;;;5.64;68.81;100324.03;5583456;31;34203;-58
2022/04/20 04:08:35;;;;;;;14.63;12.63;;;;;;;5.63;68.69;100327.75;5581412;31;34027;-58
2022/04/20 04:11:38;;;;;;;13.60;10.88;;;;;;;5.81;68.61;100334.59;5583577;31;33303;-58
2022/04/20 04:14:41;;;;;;;12.93;11.55;;;;;;;6.00;67.71;100328.97;5583303;31;33226;-58
2022/04/20 04:17:48;;;;;;;12.35;10.60;;;;;;;6.11;67.04;100325.34;5583515;31;32965;-58
2022/04/20 04:20:50;;;;;;;11.70;10.02;;;;;;;6.09;66.18;100325.63;5583250;31;33551;-58
2022/04/20 04:23:53;;;;;;;13.93;10.75;;;;;;;5.91;67.08;100339.22;5588684;31;34318;-58
2022/04/20 04:26:56;;;;;;;12.88;10.93;;;;;;;5.96;66.89;100339.31;5586877;31;33478;-58
2022/04/20 04:30:01;;;;;;;13.98;11.00;;;;;;;5.95;66.85;100340.34;5582532;31;33412;-58
2022/04/20 04:33:05;;;;;;;16.63;11.03;;;;;;;5.92;67.19;100348.81;5566665;31;34317;-58
2022/04/20 04:36:08;;;;;;;13.98;10.88;;;;;;;6.00;66.86;100345.75;5575143;31;33101;-58
2022/04/20 04:39:11;;;;;;;14.13;11.73;;;;;;;6.12;66.95;100345.59;5579369;31;33187;-58
2022/04/20 04:42:13;;;;;;;14.73;11.60;;;;;;;6.31;66.26;100344.19;5574432;31;33271;-58
2022/04/20 04:48:38;;;;;;;14.45;11.80;;;;;;;6.39;66.85;100352.75;5568548;31;33265;-58
2022/04/20 04:51:42;;;;;;;13.62;10.88;;;;;;;6.45;66.74;100351.75;5578661;31;34179;-58
2022/04/20 04:54:45;;;;;;;13.35;11.35;;;;;;;6.56;66.16;100354.25;5602505;31;34182;-58
2022/04/20 04:57:47;;;;;;;14.07;11.18;;;;;;;6.60;66.55;100354.56;5578888;31;33725;-58
2022/04/20 05:00:49;;;;;;;13.57;11.60;;;;;;;6.73;66.67;100353.31;5581337;32;34547;-58
2022/04/20 05:03:53;;;;;;;13.23;11.32;;;;;;;6.97;65.76;100362.53;5575896;31;34340;-58
2022/04/20 05:06:57;;;;;;;14.68;11.23;;;;;;;6.85;66.51;100350.47;5574313;31;34283;-58
2022/04/20 05:10:00;;;;;;;11.65;10.45;;;;;;;7.03;65.81;100355.41;5567608;31;33740;-57
2022/04/20 05:13:06;;;;;;;14.57;12.13;;;;;;;7.04;65.62;100355.13;5549817;32;34436;-58
2022/04/20 05:16:11;;;;;;;13.68;11.57;;;;;;;6.96;65.61;100352.94;5557941;31;34320;-58
2022/04/20 05:19:14;;;;;;;13.27;11.90;;;;;;;7.06;65.56;100352.22;5554531;32;33288;-58
2022/04/20 05:22:16;;;;;;;15.40;11.75;;;;;;;7.25;65.54;100361.41;5564563;32;32199;-58
2022/04/20 05:25:19;;;;;;;13.55;11.38;;;;;;;7.43;65.57;100356.69;5565437;32;33394;-58
2022/04/20 05:28:22;;;;;;;14.40;11.50;;;;;;;7.60;64.24;100353.81;5559941;31;32267;-58
2022/04/20 05:31:25;;;;;;;16.17;12.25;;;;;;;7.75;63.24;100362.69;5563397;31;33112;-58
2022/04/20 05:34:30;;;;;;;15.52;12.75;;;;;;;7.87;64.14;100365.13;5558931;31;33275;-58
2022/04/20 05:44:20;;;;;;;17.52;13.40;;;;;;;7.99;63.73;100365.69;5557020;31;33364;-58
2022/04/20 05:47:24;;;;;;;16.42;13.93;;;;;;;7.89;64.71;100363.00;5554058;32;31776;-58
2022/04/20 05:50:26;;;;;;;17.37;14.23;;;;;;;8.11;64.98;100367.31;5566246;31;33415;-58
2022/04/20 05:53:28;;;;;;;17.40;14.05;;;;;;;8.30;64.10;100367.62;5565518;32;34020;-58
2022/04/20 05:56:31;;;;;;;16.08;13.18;;;;;;;8.39;64.28;100368.75;5551662;32;34264;-58
2022/04/20 05:59:34;;;;;;;15.88;13.50;;;;;;;8.36;64.01;100374.59;5549652;32;33644;-58
2022/04/20 06:02:36;;;;;;;16.85;12.80;;;;;;;8.53;63.30;100369.00;5549106;32;34335;-58
2022/04/20 06:05:38;;;;;;;15.70;13.27;;;;;;;8.65;63.02;100361.53;5562241;32;34224;-58
2022/04/20 06:08:41;;;;;;;16.30;11.85;;;;;;;8.74;63.34;100362.63;5549676;32;33349;-58
2022/04/20 06:11:45;;;;;;;13.62;12.23;;;;;;;8.90;61.90;100364.19;5549410;32;33984;-58
2022/04/20 06:14:49;;;;;;;13.85;12.25;;;;;;;9.27;61.45;100359.56;5558704;32;33288;-58
2022/04/20 06:17:57;;;;;;;16.23;12.63;;;;;;;9.40;60.96;100365.19;5567982;32;33939;-58
2022/04/20 06:21:01;;;;;;;17.48;12.63;;;;;;;9.48;61.44;100355.78;5558342;31;33361;-58
2022/04/20 06:24:05;;;;;;;16.77;13.57;;;;;;;9.78;59.73;100362.87;5548895;32;34283;-58
2022/04/20 06:27:07;;;;;;;13.82;12.30;;;;;;;9.91;59.59;100355.34;5549529;32;33612;-58
2022/04/20 06:30:11;;;;;;;14.05;12.30;;;;;;;9.95;60.12;100351.81;5553324;32;34270;-58
2022/04/20 06:33:13;;;;;;;15.15;12.43;;;;;;;9.91;57.69;100353.44;5562935;32;34484;-58
2022/04/20 06:36:16;;;;;;;15.68;12.18;;;;;;;9.91;56.38;100355.34;5561330;32;34351;-58
2022/04/20 06:39:18;;;;;;;14.18;11.38;;;;;;;9.86;56.61;100350.78;5554309;31;34315;-59
2022/04/20 06:42:21;;;;;;;11.57;10.30;;;;;;;9.99;56.80;100352.06;5568539;31;33381;-58
2022/04/20 06:45:26;;;;;;;10.70;9.60;;;;;;;10.03;55.91;100337.84;5566661;32;33197;-57
2022/04/20 06:48:29;;;;;;;9.68;7.97;;;;;;;10.12;54.41;100336.16;5568070;32;33271;-58
2022/04/20 06:58:31;;;;;;;9.55;8.20;;;;;;;10.24;52.58;100338.50;5564202;31;33303;-59
2022/04/20 07:01:37;;;;;;;12.93;10.10;;;;;;;10.85;52.75;100328.41;5561864;31;33295;-58
2022/04/20 07:04:39;;;;;;;12.70;11.05;;;;;;;11.08;51.98;100324.16;5568099;32;33329;-58
2022/04/20 07:07:42;;;;;;;12.00;10.73;;;;;;;11.21;51.58;100321.56;5557583;32;33318;-58
2022/04/20 07:11:01;;;;;;;16.73;10.98;;;;;;;11.14;53.92;100321.13;5552959;32;33235;-59
2022/04/20 07:14:05;;;;;;;11.48;10.27;;;;;;;10.87;52.15;100326.25;5566735;32;33526;-58
2022/04/20 07:17:08;;;;;;;10.75;9.65;;;;;;;10.82;53.71;100322.50;5561093;32;34357;-58
2022/04/20 07:20:17;;;;;;;11.10;9.88;;;;;;;11.19;52.20;100323.75;5563955;32;33630;-58
2022/04/20 07:23:20;;;;;;;13.32;10.13;;;;;;;11.09;52.93;100325.72;5565804;31;33429;-58
2022/04/20 07:26:26;;;;;;;10.23;9.18;;;;;;;11.10;51.35;100319.31;5566717;31;34365;-59
2022/04/20 07:29:29;;;;;;;11.85;9.50;;;;;;;11.19;48.93;100314.87;5565912;32;34315;-58
2022/04/20 07:32:31;;;;;;;10.60;9.15;;;;;;;11.18;50.24;100319.47;5560006;31;33423;-59
2022/04/20 07:35:36;;;;;;;10.73;9.63;;;;;;;11.46;48.11;100322.37;5568193;32;33623;-58
2022/04/20 07:38:38;;;;;;;9.80;8.80;;;;;;;11.46;48.10;100327.75;5564292;31;34174;-58
2022/04/20 07:41:43;;;;;;;9.98;8.50;;;;;;;11.35;48.42;100319.00;5568034;31;33720;-59
2022/04/20 07:44:45;;;;;;;10.32;9.10;;;;;;;11.37;51.68;100319.53;5566321;32;34178;-58
2022/04/20 07:47:48;;;;;;;8.88;7.93;;;;;;;11.48;50.70;100322.88;5567339;31;34067;-58
2022/04/20 07:50:50;;;;;;;11.95;7.95;;;;;;;11.62;47.10;100314.91;5555831;32;33487;-58
2022/04/20 07:53:53;;;;;;;10.23;7.62;;;;;;;11.70;46.51;100320.44;5561190;32;33711;-58
2022/04/20 07:56:56;;;;;;;8.65;7.68;;;;;;;11.85;47.55;100324.84;5563945;31;34109;-59
2022/04/20 07:59:59;;;;;;;9.13;7.50;;;;;;;11.85;48.71;100321.34;5561909;32;33293;-58
2022/04/20 08:03:16;;;;;;;9.30;8.05;;;;;;;12.13;47.00;100316.94;5565253;31;33208;-57
2022/04/20 08:06:18;;;;;;;10.70;7.57;;;;;;;12.33;46.52;100318.50;5563913;32;34248;-57
2022/04/20 08:09:24;;;;;;;11.55;7.97;;;;;;;12.34;43.63;100320.91;5567264;31;33333;-58
2022/04/20 08:12:34;;;;;;;8.48;7.18;;;;;;;12.22;45.67;100307.12;5567213;31;33215;-59
2022/04/20 08:15:41;;;;;;;9.88;8.15;;;;;;;12.25;44.01;100300.34;5561790;31;31733;-59
2022/04/20 08:18:44;;;;;;;9.13;7.07;;;;;;;12.19;46.20;100308.50;5549885;32;33956;-58
2022/04/20 08:21:51;;;;;;;8.40;5.62;;;;;;;12.17;45.87;100301.81;5562868;31;34466;-58
2022/04/20 08:24:54;;;;;;;6.70;5.82;;;;;;;12.13;46.55;100298.91;5564971;32;33611;-59
2022/04/20 08:27:56;;;;;;;7.78;5.82;;;;;;;12.06;46.57;100293.12;5549844;32;34286;-58
2022/04/20 08:30:58;;;;;;;6.93;5.45;;;;;;;11.89;46.01;100287.47;5555272;31;33306;-58
2022/04/20 08:34:01;;;;;;;5.68;5.10;;;;;;;11.81;47.66;100296.12;5558240;32;33875;-58
2022/04/20 08:37:03;;;;;;;6.82;5.78;;;;;;;12.11;45.93;100284.19;5565555;32;33674;-59
2022/04/20 08:40:06;;;;;;;8.43;5.68;;;;;;;12.45;45.25;100284.72;5550829;32;33786;-59
2022/04/20 08:43:11;;;;;;;7.62;6.30;;;;;;;12.35;42.48;100284.87;5550728;32;33771;-58
2022/04/20 08:46:17;;;;;;;8.65;5.90;;;;;;;12.30;45.16;100282.25;5552274;32;33567;-58
2022/04/20 08:49:20;;;;;;;7.78;6.50;;;;;;;12.41;43.61;100285.56;5569554;32;33728;-59
2022/04/20 08:52:46;;;;;;;9.27;6.30;;;;;;;12.50;42.44;100280.31;5565570;32;34336;-59
2022/04/20 08:57:15;;;;;;;19.08;7.00;;;;;;;12.57;42.51;100275.38;5564316;31;33662;-58
2022/04/20 08:59:14;;;;;;;10.10;6.32;;;;;;;12.55;43.66;100274.84;5562578;32;34390;-59
2022/04/20 09:02:18;;;;;;;14.50;6.85;;;;;;;12.76;44.83;100278.78;5564574;32;33601;-59
2022/04/20 09:05:22;;;;;;;9.25;6.03;;;;;;;12.66;44.59;100282.44;5549910;32;33763;-59
2022/04/20 09:08:25;;;;;;;6.12;5.37;;;;;;;12.51;44.57;100273.84;5552506;32;34817;-59
2022/04/20 09:11:29;;;;;;;7.12;5.62;;;;;;;12.45;43.05;100267.78;5559091;31;33205;-58
2022/04/20 09:14:32;;;;;;;6.47;5.60;;;;;;;12.54;41.85;100275.94;5554795;32;33737;-59
2022/04/20 09:17:45;;;;;;;8.90;4.97;;;;;;;12.44;41.71;100274.22;5558339;32;33741;-59
2022/04/20 09:20:47;;;;;;;8.52;5.62;;;;;;;12.28;41.14;100273.69;5554838;31;36266;-59
2022/04/20 09:24:05;;;;;;;6.93;5.15;;;;;;;12.15;41.30;100277.94;5562609;32;33749;-58
2022/04/20 09:27:08;;;;;;;5.78;5.05;;;;;;;12.09;42.23;100271.03;5563594;31;34340;-59
2022/04/20 09:30:15;;;;;;;6.22;5.43;;;;;;;12.25;43.00;100266.22;5572054;31;33803;-58
2022/04/20 09:33:18;;;;;;;7.70;4.90;;;;;;;12.50;41.19;100266.88;5551516;31;34402;-59
2022/04/20 09:36:48;;;;;;;7.43;4.95;;;;;;;12.44;40.95;100264.28;5562806;31;34617;-59
2022/04/20 09:39:51;;;;;;;5.72;4.95;;;;;;;12.45;41.85;100262.41;5560527;32;34379;-58
2022/04/20 09:43:02;;;;;;;10.10;5.35;;;;;;;12.47;41.99;100262.88;5556798;32;33686;-59
2022/04/20 09:49:30;;;;;;;8.07;5.82;;;;;;;12.62;41.25;100259.94;5557554;32;34359;-58
2022/04/20 09:52:41;;;;;;;7.03;5.93;;;;;;;12.79;41.96;100261.25;5569399;32;33645;-58
2022/04/20 09:55:43;;;;;;;6.95;6.22;;;;;;;12.98;42.11;100251.22;5568988;32;34330;-58
2022/04/20 09:58:46;;;;;;;7.80;6.32;;;;;;;13.19;41.84;100258.88;5566909;32;34379;-58
2022/04/20 10:01:52;;;;;;;6.68;5.62;;;;;;;13.36;42.34;100256.38;5555946;32;34349;-58
2022/04/20 10:04:55;;;;;;;8.10;6.20;;;;;;;13.28;40.66;100243.66;5562690;32;33636;-58
2022/04/20 10:07:59;;;;;;;6.70;5.72;;;;;;;13.41;39.98;100248.22;5561150;31;33436;-58
2022/04/20 10:11:03;;;;;;;7.00;5.75;;;;;;;13.43;40.18;100243.31;5566500;32;33693;-59
2022/04/20 10:17:28;;;;;;;8.65;6.22;;;;;;;13.30;39.43;100250.31;5551846;31;33624;-59
2022/04/20 10:20:32;;;;;;;9.25;6.25;;;;;;;13.15;40.73;100246.00;5554524;32;34431;-59
2022/04/20 10:23:38;;;;;;;6.90;5.85;;;;;;;13.00;39.74;100245.53;5558202;32;34439;-59
2022/04/20 10:26:40;;;;;;;8.07;5.65;;;;;;;12.98;38.72;100235.06;5560484;32;34362;-59
2022/04/20 10:29:54;;;;;;;8.10;5.93;;;;;;;13.16;38.73;100230.66;5554031;32;33676;-59
2022/04/20 10:33:08;;;;;;;7.53;6.18;;;;;;;13.07;37.52;100238.62;5568293;32;33706;-59
2022/04/20 10:36:15;;;;;;;10.02;6.10;;;;;;;12.99;37.45;100231.28;5550595;32;33485;-58
2022/04/20 10:39:20;;;;;;;8.93;6.22;;;;;;;13.01;39.50;100234.44;5549413;32;34305;-59
2022/04/20 10:42:23;;;;;;;7.50;5.70;;;;;;;13.11;40.33;100242.34;5558809;32;31903;-59
2022/04/20 10:45:34;;;;;;;7.85;5.78;;;;;;;13.08;38.81;100234.88;5559324;32;33714;-59
2022/04/20 10:49:02;;;;;;;7.80;5.30;;;;;;;13.17;37.10;100227.66;5560241;32;33618;-59
2022/04/20 10:52:22;;;;;;;7.07;5.70;;;;;;;13.10;37.17;100219.19;5555292;31;34334;-58
2022/04/20 10:55:44;;;;;;;7.12;6.37;;;;;;;13.04;36.43;100222.28;5557365;31;33761;-59
2022/04/20 10:59:07;;;;;;;7.35;5.55;;;;;;;13.13;37.27;100229.34;5551972;32;33741;-59
2022/04/20 11:02:12;;;;;;;7.18;6.18;;;;;;;13.16;37.30;100226.06;5551301;32;33778;-58
2022/04/20 11:05:15;;;;;;;6.70;5.78;;;;;;;13.21;36.19;100229.75;5557909;32;34209;-59
2022/04/20 11:08:18;;;;;;;7.05;5.97;;;;;;;13.22;36.66;100216.00;5566589;32;33666;-57
2022/04/20 11:21:30;;;;;;;6.85;6.00;;;;;;;12.99;36.41;100217.03;5557890;32;34533;-58
2022/04/20 11:24:32;;;;;;;8.15;6.15;;;;;;;13.08;35.72;100210.63;5550054;32;34400;-59
2022/04/20 11:27:36;;;;;;;8.38;6.40;;;;;;;12.99;35.51;100211.66;5555627;32;34487;-58
2022/04/20 11:30:43;;;;;;;11.05;6.00;;;;;;;13.03;35.16;100209.94;5562076;31;33643;-59
2022/04/20 11:33:46;;;;;;;8.48;5.90;;;;;;;13.25;36.40;100209.25;5561605;31;33975;-59
2022/04/20 11:36:59;;;;;;;7.00;5.93;;;;;;;13.40;34.49;100200.84;5568473;32;33770;-58
2022/04/20 11:40:11;;;;;;;7.82;6.40;;;;;;;13.47;34.08;100205.78;5552723;32;33702;-57
2022/04/20 11:43:14;;;;;;;8.25;6.65;;;;;;;13.33;35.50;100200.44;5561255;31;33420;-59
2022/04/20 11:46:43;;;;;;;11.52;7.57;;;;;;;13.33;34.17;100198.56;5548333;32;33338;-59
2022/04/20 11:49:48;;;;;;;9.85;8.23;;;;;;;13.33;34.92;100201.25;5554127;32;34287;-58
2022/04/20 11:53:03;;;;;;;8.57;7.67;;;;;;;13.27;34.80;100201.66;5564926;31;33378;-57
2022/04/20 11:56:07;;;;;;;8.88;7.65;;;;;;;13.11;34.81;100207.34;5554374;31;33381;-58
2022/04/20 11:59:09;;;;;;;8.95;7.78;;;;;;;13.04;34.90;100196.16;5552901;32;33861;-58
2022/04/20 12:02:15;;;;;;;11.20;7.18;;;;;;;13.09;34.04;100195.28;5554281;32;34253;-58
2022/04/20 12:05:19;;;;;;;8.27;7.15;;;;;;;13.17;34.47;100195.34;5549135;32;34480;-59
2022/04/20 12:08:24;;;;;;;9.25;7.60;;;;;;;13.14;33.79;100190.59;5547880;32;34333;-58
2022/04/20 12:11:26;;;;;;;9.73;7.55;;;;;;;13.27;34.51;100188.19;5548480;32;33771;-58
2022/04/20 12:14:32;;;;;;;9.18;7.57;;;;;;;13.46;34.41;100191.53;5548551;32;33760;-58
2022/04/20 12:17:36;;;;;;;9.15;7.12;;;;;;;13.70;32.60;100190.47;5550321;32;34054;-58
2022/04/20 12:20:46;;;;;;;8.50;7.37;;;;;;;13.86;32.88;100178.22;5557548;32;34439;-59
2022/04/20 12:23:49;;;;;;;8.20;7.10;;;;;;;14.06;34.32;100185.81;5570290;32;33659;-58
2022/04/20 12:26:54;;;;;;;9.52;7.87;;;;;;;14.08;31.23;100170.13;5566898;32;33772;-58
2022/04/20 12:29:58;;;;;;;12.75;7.30;;;;;;;14.17;35.07;100170.19;5557513;32;33680;-58
2022/04/20 12:33:04;;;;;;;10.10;7.60;;;;;;;14.17;32.89;100167.50;5555945;32;34408;-58
2022/04/20 12:36:11;;;;;;;8.77;7.60;;;;;;;14.06;31.57;100172.31;5556953;32;33604;-58
2022/04/20 12:39:35;;;;;;;9.98;8.40;;;;;;;14.09;31.82;100170.91;5550214;32;33483;-58
2022/04/20 12:42:57;;;;;;;9.50;7.82;;;;;;;14.23;32.88;100168.12;5550538;32;34399;-59
2022/04/20 12:46:13;;;;;;;9.18;8.10;;;;;;;14.34;32.23;100166.78;5550630;32;33374;-58
2022/04/20 12:49:29;;;;;;;9.02;7.20;;;;;;;14.35;32.63;100173.75;5551490;32;34409;-59
2022/04/20 12:52:32;;;;;;;9.75;6.95;;;;;;;14.47;32.41;100181.25;5550331;32;33651;-57
2022/04/20 12:55:37;;;;;;;13.93;8.65;;;;;;;14.52;32.19;100168.47;5549583;32;34340;-59
2022/04/20 13:02:13;;;;;;;10.63;8.35;;;;;;;14.59;32.22;100162.63;5559160;32;33757;-59
2022/04/20 13:05:17;;;;;;;10.85;8.55;;;;;;;14.60;32.76;100166.91;5554490;32;33752;-59
2022/04/20 13:08:21;;;;;;;11.27;7.75;;;;;;;14.58;32.78;100169.13;5570044;32;33716;-58
2022/04/20 13:11:23;;;;;;;16.40;9.60;;;;;;;14.54;34.20;100166.25;5569972;32;34317;-59
2022/04/20 13:14:41;;;;;;;9.50;8.43;;;;;;;14.32;33.63;100166.28;5554828;32;33780;-59
2022/04/20 13:17:44;;;;;;;10.52;7.30;;;;;;;14.23;33.13;100160.03;5550123;32;34230;-60
2022/04/20 13:20:47;;;;;;;9.20;7.05;;;;;;;14.25;33.98;100153.25;5553214;32;34431;-59
2022/04/20 13:23:50;;;;;;;8.82;7.60;;;;;;;14.30;32.64;100146.91;5550116;32;33711;-59
2022/04/20 13:30:13;;;;;;;8.98;7.95;;;;;;;14.55;33.39;100148.16;5550828;32;33759;-58
2022/04/20 13:33:16;;;;;;;9.43;7.85;;;;;;;14.46;32.09;100145.41;5549987;32;34312;-57
2022/04/20 13:36:18;;;;;;;9.85;8.48;;;;;;;14.31;32.90;100135.03;5566227;32;32958;-58
2022/04/20 13:39:20;;;;;;;11.20;8.63;;;;;;;14.17;32.41;100145.94;5558488;32;34364;-58
2022/04/20 13:42:22;;;;;;;8.60;7.55;;;;;;;14.16;33.61;100140.81;5548752;32;33767;-58
2022/04/20 13:45:24;;;;;;;9.80;8.32;;;;;;;14.21;32.16;100141.50;5548917;32;33672;-59
2022/04/20 13:48:27;;;;;;;9.27;8.27;;;;;;;14.20;32.63;100149.88;5552452;32;33655;-58
2022/04/20 13:51:29;;;;;;;9.35;7.70;;;;;;;14.19;32.74;100143.69;5567303;32;34450;-58
2022/04/20 13:54:32;;;;;;;13.18;8.32;;;;;;;14.32;32.71;100147.41;5564582;32;33736;-58
2022/04/20 13:57:37;;;;;;;10.30;8.07;;;;;;;14.32;32.87;100145.50;5548142;32;33756;-59
2022/04/20 14:00:40;;;;;;;9.85;8.35;;;;;;;14.37;32.38;100144.59;5548570;32;34484;-58
2022/04/20 14:03:42;;;;;;;11.40;8.48;;;;;;;14.20;31.79;100147.19;5549057;32;34330;-59
2022/04/20 14:06:44;;;;;;;8.98;7.82;;;;;;;14.08;32.02;100156.66;5562082;32;33661;-59
2022/04/20 14:09:47;;;;;;;9.65;8.65;;;;;;;13.85;32.94;100147.00;5565685;32;33427;-58
2022/04/20 14:12:49;;;;;;;9.40;8.40;;;;;;;13.85;32.26;100144.31;5548846;32;34386;-58
2022/04/20 14:15:52;;;;;;;11.32;8.65;;;;;;;14.01;31.75;100142.03;5548741;32;33611;-59
2022/04/20 14:18:54;;;;;;;9.80;8.27;;;;;;;14.20;33.65;100144.47;5548198;32;33809;-59
2022/04/20 14:21:57;;;;;;;9.35;6.78;;;;;;;14.31;33.05;100133.13;5556271;32;34418;-59
2022/04/20 14:35:02;;;;;;;11.32;8.15;;;;;;;14.84;31.26;100146.84;5567837;32;33790;-59
2022/04/20 14:38:04;;;;;;;12.88;9.30;;;;;;;14.93;31.30;100147.62;5554007;32;34484;-58
2022/04/20 14:41:07;;;;;;;11.95;9.98;;;;;;;14.93;30.98;100148.44;5556964;32;34373;-58
2022/04/20 14:44:09;;;;;;;11.45;9.52;;;;;;;14.81;32.39;100148.25;5549239;32;34253;-58
2022/04/20 14:47:12;;;;;;;10.00;8.70;;;;;;;14.83;30.35;100147.91;5550789;32;34314;-59
2022/04/20 14:50:14;;;;;;;13.23;9.77;;;;;;;14.77;32.22;100158.09;5554008;32;34379;-58
2022/04/20 14:53:17;;;;;;;12.70;9.68;;;;;;;14.80;32.29;100157.44;5561189;32;33821;-59
2022/04/20 14:56:19;;;;;;;11.12;9.18;;;;;;;14.64;39.34;100153.59;5549239;32;33652;-59
2022/04/20 14:59:21;;;;;;;10.88;9.77;;;;;;;14.57;32.33;100146.75;5549270;32;33680;-58
2022/04/20 15:02:23;;;;;;;11.57;9.65;;;;;;;14.43;32.29;100156.81;5549563;32;33819;-58
2022/04/20 15:05:26;;;;;;;12.07;9.30;;;;;;;14.47;31.96;100155.09;5557847;32;33795;-58
2022/04/20 15:08:28;;;;;;;12.52;9.77;;;;;;;14.47;33.26;100152.41;5555817;32;34374;-59
2022/04/20 15:11:30;;;;;;;11.52;9.07;;;;;;;14.56;31.77;100160.53;5556330;32;33439;-59
2022/04/20 15:14:32;;;;;;;13.15;9.05;;;;;;;14.64;32.50;100156.31;5549248;32;33661;-59
2022/04/20 15:17:36;;;;;;;10.27;8.82;;;;;;;14.63;30.83;100160.88;5565626;32;34405;-59
2022/04/20 15:20:39;;;;;;;12.30;9.15;;;;;;;14.59;30.88;100159.13;5568856;32;33477;-59
2022/04/20 15:23:42;;;;;;;9.70;8.43;;;;;;;14.53;31.08;100151.16;5569021;32;34407;-59
